Time;durP1;ratioP1;P1;durP2;ratioP2;P2;SDS_P1;SDS_P2;PMS_P1;PMS_P2;Temp;Humidity;BMP_temperature;BMP_pressure;BME280_temperature;BME280_humidity;BME280_pressure;Samples;Min_cycle;Max_cycle;Signal;HPM_P1;HPM_P2
2022/12/22 03:25:54;;;;;;;;;;;;;;;11.79;45.21;99861.53;4959393;28;98064;-68
2022/12/22 03:28:21;;;;;;;;;;;;;;;11.78;45.33;99851.81;4956847;28;98616;-65
2022/12/22 03:30:53;;;;;;;;;;;;;;;11.80;45.37;99857.75;4957202;28;98043;-65
2022/12/22 03:33:19;;;;;;;;;;;;;;;11.79;45.37;99858.84;4960209;28;107789;-65
2022/12/22 03:35:45;;;;;;;;;;;;;;;11.80;45.23;99849.63;4955870;28;125139;-68
2022/12/22 03:38:11;;;;;;;;;;;;;;;11.79;45.39;99851.53;4957241;28;127848;-65
2022/12/22 03:40:37;;;;;;;;;;;;;;;11.79;45.28;99848.84;4944813;28;123900;-68
2022/12/22 03:48:37;;;;;;;;;;;;;;;11.79;45.35;99835.34;4961397;28;99276;-65
2022/12/22 03:51:03;;;;;;;;;;;;;;;11.81;45.50;99840.44;4924432;28;122792;-65
2022/12/22 03:53:29;;;;;;;;;;;;;;;11.82;45.40;99830.44;4954085;28;127234;-66
2022/12/22 03:55:54;;;;;;;;;;;;;;;11.82;45.43;99825.03;4973575;28;128054;-68
2022/12/22 03:58:20;;;;;;;;;;;;;;;11.83;45.35;99827.50;4971320;28;127545;-68
2022/12/22 04:00:46;;;;;;;;;;;;;;;11.83;45.53;99815.84;4959718;28;123255;-65
2022/12/22 04:03:13;;;;;;;;;;;;;;;11.83;45.08;99815.84;4971997;28;125951;-66
2022/12/22 04:05:38;;;;;;;;;;;;;;;11.82;45.40;99809.63;4973877;28;100384;-68
2022/12/22 04:08:05;;;;;;;;;;;;;;;11.83;45.52;99816.69;4958608;28;123527;-68
2022/12/22 04:13:15;;;;;;;;;;;;;;;11.84;45.42;99810.19;4961111;28;98289;-68
2022/12/22 04:15:41;;;;;;;;;;;;;;;11.86;45.43;99807.19;4943214;28;130191;-69
2022/12/22 04:18:07;;;;;;;;;;;;;;;11.85;45.31;99817.19;4940422;28;126989;-65
2022/12/22 04:20:33;;;;;;;;;;;;;;;11.86;45.41;99797.19;4944322;28;122879;-65
2022/12/22 04:22:59;;;;;;;;;;;;;;;11.87;45.26;99795.28;4942526;28;101141;-68
2022/12/22 04:25:25;;;;;;;;;;;;;;;11.86;45.40;99794.47;4956742;28;127893;-65
2022/12/22 04:27:51;;;;;;;;;;;;;;;11.87;45.34;99792.59;4941324;28;98993;-68
2022/12/22 04:30:17;;;;;;;;;;;;;;;11.87;45.34;99796.13;4942980;28;97970;-65
2022/12/22 04:32:43;;;;;;;;;;;;;;;11.89;45.00;99785.00;4945783;28;125980;-66
2022/12/22 04:35:09;;;;;;;;;;;;;;;11.90;45.31;99778.50;4959997;28;99281;-66
2022/12/22 04:37:35;;;;;;;;;;;;;;;11.89;45.46;99775.00;4943193;28;120559;-68
2022/12/22 04:40:01;;;;;;;;;;;;;;;11.89;45.62;99782.31;4962841;28;117918;-68
2022/12/22 04:42:27;;;;;;;;;;;;;;;11.90;45.35;99784.69;4945950;28;99345;-66
2022/12/22 04:44:53;;;;;;;;;;;;;;;11.91;45.44;99772.81;4947260;28;128834;-66
2022/12/22 04:47:19;;;;;;;;;;;;;;;11.93;45.45;99777.94;4929693;28;99345;-66
2022/12/22 04:49:45;;;;;;;;;;;;;;;11.92;45.47;99771.72;4967867;28;97924;-65
2022/12/22 04:52:11;;;;;;;;;;;;;;;11.93;45.50;99765.22;4957777;28;120807;-65
2022/12/22 04:54:37;;;;;;;;;;;;;;;11.94;45.28;99766.81;4925838;28;127708;-69
2022/12/22 04:57:03;;;;;;;;;;;;;;;11.96;45.38;99764.63;4963654;28;128003;-68
2022/12/22 04:59:28;;;;;;;;;;;;;;;11.97;45.36;99768.94;4947606;28;98912;-69
2022/12/22 05:01:54;;;;;;;;;;;;;;;11.99;45.41;99763.25;4941751;28;127605;-65
2022/12/22 05:04:20;;;;;;;;;;;;;;;11.99;45.39;99757.84;4941670;28;120951;-66
2022/12/22 05:06:46;;;;;;;;;;;;;;;12.00;45.57;99760.25;4956256;28;128425;-68
2022/12/22 05:09:12;;;;;;;;;;;;;;;12.01;45.52;99753.75;4958253;28;122846;-66
2022/12/22 05:11:38;;;;;;;;;;;;;;;12.02;45.68;99749.97;4943203;28;127430;-66
2022/12/22 05:14:04;;;;;;;;;;;;;;;12.04;45.43;99753.16;4940791;28;128583;-69
2022/12/22 05:16:30;;;;;;;;;;;;;;;12.05;45.46;99745.88;4972737;28;128115;-66
2022/12/22 05:18:56;;;;;;;;;;;;;;;12.07;45.48;99745.59;4945807;28;123009;-65
2022/12/22 05:21:22;;;;;;;;;;;;;;;12.08;45.42;99741.78;4942908;28;99353;-69
2022/12/22 05:23:48;;;;;;;;;;;;;;;12.08;45.39;99739.88;4944976;28;101375;-69
2022/12/22 05:26:14;;;;;;;;;;;;;;;12.09;45.48;99738.78;4942415;28;100026;-66
2022/12/22 05:28:41;;;;;;;;;;;;;;;12.11;45.40;99739.28;4959018;28;116815;-68
2022/12/22 05:31:18;;;;;;;;;;;;;;;12.13;45.16;99736.28;4940105;28;124364;-66
2022/12/22 05:33:44;;;;;;;;;;;;;;;12.13;45.33;99731.69;4945396;28;98147;-68
2022/12/22 05:36:10;;;;;;;;;;;;;;;12.15;45.37;99734.09;4943461;28;115553;-69
2022/12/22 05:38:36;;;;;;;;;;;;;;;12.16;45.50;99727.59;4944988;28;98142;-69
2022/12/22 05:41:02;;;;;;;;;;;;;;;12.16;45.50;99727.59;4940803;28;128957;-69
2022/12/22 05:43:28;;;;;;;;;;;;;;;12.16;45.47;99725.69;4958819;28;128930;-65
2022/12/22 05:45:54;;;;;;;;;;;;;;;12.17;45.33;99723.78;4975856;27;115694;-65
2022/12/22 05:48:20;;;;;;;;;;;;;;;12.19;45.40;99724.31;4939741;28;123524;-65
2022/12/22 05:50:45;;;;;;;;;;;;;;;12.18;45.46;99718.13;4936837;28;127120;-65
2022/12/22 05:53:11;;;;;;;;;;;;;;;12.19;45.42;99714.31;4954199;28;128270;-69
2022/12/22 05:55:37;;;;;;;;;;;;;;;12.19;45.26;99714.31;4940975;28;129128;-65
2022/12/22 05:58:03;;;;;;;;;;;;;;;12.19;45.45;99711.59;4961018;28;122776;-66
2022/12/22 06:00:30;;;;;;;;;;;;;;;12.20;45.48;99707.78;4944262;28;98837;-68
2022/12/22 06:02:56;;;;;;;;;;;;;;;12.20;45.48;99709.69;4942363;28;121375;-67
2022/12/22 06:05:22;;;;;;;;;;;;;;;12.20;45.58;99712.41;4960666;28;121369;-67
2022/12/22 06:07:48;;;;;;;;;;;;;;;12.20;45.42;99704.28;4942019;28;121964;-67
2022/12/22 06:10:14;;;;;;;;;;;;;;;12.20;45.31;99701.59;4958083;28;128449;-67
2022/12/22 06:12:40;;;;;;;;;;;;;;;12.20;45.31;99694.28;4955804;28;115410;-68
2022/12/22 06:15:07;;;;;;;;;;;;;;;12.20;45.40;99697.00;4955898;28;107653;-63
2022/12/22 06:17:33;;;;;;;;;;;;;;;12.20;45.56;99699.69;4942222;28;97897;-63
2022/12/22 06:19:59;;;;;;;;;;;;;;;12.20;45.57;99702.41;4954300;28;127282;-63
2022/12/22 06:22:24;;;;;;;;;;;;;;;12.24;45.83;99697.19;4954960;28;108452;-63
2022/12/22 06:24:50;;;;;;;;;;;;;;;12.31;45.63;99694.13;4945860;28;127230;-67
2022/12/22 06:27:16;;;;;;;;;;;;;;;12.38;45.57;99692.63;4940179;28;122144;-63
2022/12/22 06:29:42;;;;;;;;;;;;;;;12.44;45.46;99690.63;4942322;28;127610;-67
2022/12/22 06:32:08;;;;;;;;;;;;;;;12.50;45.32;99689.47;4942188;28;126200;-63
2022/12/22 06:34:34;;;;;;;;;;;;;;;12.55;45.59;99693.97;4942774;28;129004;-64
2022/12/22 06:37:00;;;;;;;;;;;;;;;12.58;45.49;99686.06;4940647;28;122964;-68
2022/12/22 06:39:26;;;;;;;;;;;;;;;12.61;45.51;99693.53;4942349;28;128724;-68
2022/12/22 06:44:36;;;;;;;;;;;;;;;12.67;45.43;99688.88;4942780;28;97929;-67
2022/12/22 06:47:02;;;;;;;;;;;;;;;12.67;45.47;99681.53;4944488;28;97902;-64
2022/12/22 06:49:28;;;;;;;;;;;;;;;12.69;45.71;99681.22;4952785;28;128685;-67
2022/12/22 06:51:54;;;;;;;;;;;;;;;12.71;45.52;99684.47;4954404;28;128283;-67
2022/12/22 06:54:20;;;;;;;;;;;;;;;12.72;45.72;99673.34;4941123;28;126942;-68
2022/12/22 06:56:46;;;;;;;;;;;;;;;12.73;45.64;99674.13;4972646;28;123004;-64
2022/12/22 06:59:11;;;;;;;;;;;;;;;12.74;45.81;99681.16;4958938;28;128164;-63
2022/12/22 07:01:38;;;;;;;;;;;;;;;12.74;45.69;99686.56;4953183;28;123966;-64
2022/12/22 07:04:04;;;;;;;;;;;;;;;12.74;45.55;99686.56;4954614;28;97872;-64
2022/12/22 07:06:30;;;;;;;;;;;;;;;12.75;45.52;99685.47;4938680;28;118867;-64
2022/12/22 07:08:55;;;;;;;;;;;;;;;12.74;45.68;99678.44;4923011;28;111538;-64
2022/12/22 07:11:21;;;;;;;;;;;;;;;12.74;45.72;99670.34;4959099;28;128665;-68
2022/12/22 07:13:47;;;;;;;;;;;;;;;12.74;45.57;99667.63;4935897;28;121867;-68
2022/12/22 07:16:13;;;;;;;;;;;;;;;12.73;45.51;99661.44;4928633;27;98579;-68
2022/12/22 07:18:40;;;;;;;;;;;;;;;12.72;45.45;99667.91;4932479;28;127814;-64
2022/12/22 07:21:08;;;;;;;;;;;;;;;12.73;45.64;99663.31;4937641;28;99446;-68
2022/12/22 07:23:34;;;;;;;;;;;;;;;12.73;45.45;99666.00;4938675;28;102099;-64
2022/12/22 07:26:00;;;;;;;;;;;;;;;12.72;45.72;99662.50;4915748;28;100915;-68
2022/12/22 07:28:26;;;;;;;;;;;;;;;12.71;45.47;99660.91;4955473;28;124330;-64
2022/12/22 07:30:52;;;;;;;;;;;;;;;12.71;45.52;99657.41;4926103;28;98154;-68
2022/12/22 07:33:18;;;;;;;;;;;;;;;12.71;45.71;99652.81;4942980;28;98945;-64
2022/12/22 07:35:44;;;;;;;;;;;;;;;12.71;45.56;99643.91;4940822;28;122007;-68
2022/12/22 07:38:10;;;;;;;;;;;;;;;12.69;45.57;99644.22;4956937;28;119838;-68
2022/12/22 07:40:36;;;;;;;;;;;;;;;12.72;45.54;99642.78;4974482;28;98524;-64
2022/12/22 07:43:02;;;;;;;;;;;;;;;12.73;45.68;99642.50;4957430;28;128255;-64
2022/12/22 07:45:28;;;;;;;;;;;;;;;12.74;45.67;99638.69;4941406;28;121824;-64
2022/12/22 07:48:00;;;;;;;;;;;;;;;12.75;45.49;99636.78;4956837;28;128657;-65
2022/12/22 07:50:27;;;;;;;;;;;;;;;12.76;45.64;99636.47;4954962;28;98947;-68
2022/12/22 07:53:03;;;;;;;;;;;;;;;12.77;45.69;99629.16;4955327;28;98023;-64
2022/12/22 07:55:30;;;;;;;;;;;;;;;12.78;45.44;99631.56;4938673;28;98052;-68
2022/12/22 07:57:56;;;;;;;;;;;;;;;12.80;45.68;99631.25;4952557;28;103298;-64
2022/12/22 08:00:22;;;;;;;;;;;;;;;12.81;45.66;99635.59;4953940;28;127405;-67
2022/12/22 08:02:53;;;;;;;;;;;;;;;12.81;45.58;99627.47;4939470;28;98145;-64
2022/12/22 08:05:19;;;;;;;;;;;;;;;12.84;45.44;99623.34;4967291;27;98252;-67
2022/12/22 08:07:46;;;;;;;;;;;;;;;12.87;45.41;99626.25;4923742;28;99178;-67
2022/12/22 08:10:12;;;;;;;;;;;;;;;12.88;45.55;99613.53;4940418;28;99554;-63
2022/12/22 08:12:38;;;;;;;;;;;;;;;12.89;45.32;99615.94;4955722;28;126582;-64
2022/12/22 08:15:05;;;;;;;;;;;;;;;12.92;45.26;99615.31;4955400;28;99704;-68
2022/12/22 08:17:31;;;;;;;;;;;;;;;12.92;45.40;99601.00;4950173;28;119525;-65
2022/12/22 08:19:57;;;;;;;;;;;;;;;12.95;45.66;99609.31;4940484;28;117229;-68
2022/12/22 08:22:23;;;;;;;;;;;;;;;12.97;45.46;99604.41;4927708;28;127920;-68
2022/12/22 08:24:50;;;;;;;;;;;;;;;13.01;45.58;99604.59;4955291;28;98107;-68
2022/12/22 08:27:17;;;;;;;;;;;;;;;13.05;45.39;99593.94;4937621;28;98230;-64
2022/12/22 08:29:45;;;;;;;;;;;;;;;13.05;45.39;99592.06;4926868;28;118340;-68
2022/12/22 08:32:11;;;;;;;;;;;;;;;13.07;45.47;99589.84;4948024;28;117640;-68
2022/12/22 08:34:37;;;;;;;;;;;;;;;13.07;45.69;99581.72;4953799;28;122524;-65
2022/12/22 08:37:04;;;;;;;;;;;;;;;13.11;45.32;99581.91;4937225;28;105804;-68
2022/12/22 08:39:31;;;;;;;;;;;;;;;13.14;45.38;99581.31;4925655;28;98526;-65
2022/12/22 08:41:57;;;;;;;;;;;;;;;13.16;45.21;99579.88;4932489;28;99775;-68
2022/12/22 08:44:27;;;;;;;;;;;;;;;13.19;45.34;99564.97;4941812;28;97980;-66
2022/12/22 08:46:54;;;;;;;;;;;;;;;13.24;45.11;99575.69;4921258;28;127765;-68
2022/12/22 08:49:20;;;;;;;;;;;;;;;13.27;45.31;99570.47;4937665;28;122125;-68
2022/12/22 08:51:46;;;;;;;;;;;;;;;13.34;45.25;99574.66;4920941;28;101937;-68
2022/12/22 08:54:12;;;;;;;;;;;;;;;13.38;45.28;99567.53;4924299;28;98278;-68
2022/12/22 08:56:37;;;;;;;;;;;;;;;13.41;44.93;99565.00;4935873;28;127603;-65
2022/12/22 08:59:06;;;;;;;;;;;;;;;13.41;45.27;99554.19;4938780;28;119716;-68
2022/12/22 09:01:33;;;;;;;;;;;;;;;13.47;45.04;99558.34;4953962;28;98641;-65
2022/12/22 09:03:59;;;;;;;;;;;;;;;13.51;44.97;99559.34;4955667;28;100735;-66
2022/12/22 09:06:25;;;;;;;;;;;;;;;13.55;45.36;99559.50;4953671;28;98343;-65
2022/12/22 09:08:55;;;;;;;;;;;;;;;13.58;45.14;99553.50;4954945;28;111185;-68
2022/12/22 09:11:21;;;;;;;;;;;;;;;13.63;45.14;99550.66;4952170;28;98477;-64
2022/12/22 09:13:49;;;;;;;;;;;;;;;13.60;45.07;99550.50;4936335;28;98005;-69
2022/12/22 09:16:14;;;;;;;;;;;;;;;13.60;45.03;99543.16;4955038;28;125296;-64
2022/12/22 09:18:40;;;;;;;;;;;;;;;13.64;45.16;99543.34;4937120;28;129181;-64
2022/12/22 09:21:06;;;;;;;;;;;;;;;13.67;45.02;99535.38;4938339;28;127646;-64
2022/12/22 09:23:32;;;;;;;;;;;;;;;13.74;44.90;99546.56;4972208;28;120399;-64
2022/12/22 09:25:58;;;;;;;;;;;;;;;13.75;45.15;99544.66;4920524;28;128175;-68
2022/12/22 09:28:24;;;;;;;;;;;;;;;13.78;44.86;99541.34;4934370;28;98491;-68
2022/12/22 09:30:50;;;;;;;;;;;;;;;13.80;45.16;99532.91;4936807;28;127096;-68
2022/12/22 09:33:17;;;;;;;;;;;;;;;13.75;45.23;99528.41;4937346;28;98252;-68
2022/12/22 09:35:43;;;;;;;;;;;;;;;13.74;45.20;99524.13;4951978;28;128694;-68
2022/12/22 09:38:09;;;;;;;;;;;;;;;13.72;45.10;99523.63;4939863;28;98095;-64
2022/12/22 09:40:35;;;;;;;;;;;;;;;13.72;45.27;99529.84;4932810;28;128920;-64
2022/12/22 09:43:01;;;;;;;;;;;;;;;13.73;45.09;99522.53;4922801;28;101246;-68
2022/12/22 09:45:28;;;;;;;;;;;;;;;13.72;45.23;99516.31;4942433;28;116138;-67
2022/12/22 09:47:53;;;;;;;;;;;;;;;13.70;45.15;99513.09;4940043;28;98154;-63
2022/12/22 09:50:24;;;;;;;;;;;;;;;13.69;45.58;99516.13;4920922;28;98138;-62
2022/12/22 09:52:58;;;;;;;;;;;;;;;13.67;45.14;99513.72;4954512;27;98311;-67
2022/12/22 09:55:23;;;;;;;;;;;;;;;13.67;45.15;99508.28;4938376;28;98400;-67
2022/12/22 09:57:50;;;;;;;;;;;;;;;13.66;45.18;99504.00;4952158;28;98342;-67
2022/12/22 10:00:21;;;;;;;;;;;;;;;13.65;45.52;99501.63;4939975;28;117041;-64
2022/12/22 10:03:05;;;;;;;;;;;;;;;13.65;45.22;99498.91;4940013;28;98659;-62
2022/12/22 10:05:44;;;;;;;;;;;;;;;13.64;45.62;99495.41;4958472;28;98699;-63
2022/12/22 10:08:25;;;;;;;;;;;;;;;13.63;45.25;99491.06;4940055;28;98188;-62
2022/12/22 10:10:54;;;;;;;;;;;;;;;13.61;45.65;99485.19;4936942;28;126027;-62
2022/12/22 10:13:20;;;;;;;;;;;;;;;13.60;45.35;99472.78;4920759;28;119969;-62
2022/12/22 10:15:47;;;;;;;;;;;;;;;13.61;45.49;99476.28;4935671;28;128831;-63
2022/12/22 10:18:14;;;;;;;;;;;;;;;13.63;45.23;99476.75;4934847;28;121767;-66
2022/12/22 10:20:41;;;;;;;;;;;;;;;13.63;45.58;99468.63;4926376;28;98048;-66
2022/12/22 10:23:16;;;;;;;;;;;;;;;13.63;45.67;99455.09;4924780;28;98060;-63
2022/12/22 10:25:55;;;;;;;;;;;;;;;13.66;45.61;99452.56;4920137;28;98426;-63
2022/12/22 10:28:26;;;;;;;;;;;;;;;13.71;45.35;99452.41;4934932;28;98697;-67
2022/12/22 10:31:17;;;;;;;;;;;;;;;13.79;45.13;99450.84;4940431;28;98497;-64
2022/12/22 10:33:44;;;;;;;;;;;;;;;13.84;45.18;99445.31;4946663;28;98427;-64
2022/12/22 10:36:11;;;;;;;;;;;;;;;13.87;45.23;99449.28;4935202;28;98206;-67
2022/12/22 10:38:51;;;;;;;;;;;;;;;13.89;45.16;99444.38;4924537;28;98710;-66
2022/12/22 10:41:19;;;;;;;;;;;;;;;13.90;45.29;99441.31;4938583;28;112583;-62
2022/12/22 10:44:24;;;;;;;;;;;;;;;13.92;45.28;99441.81;4938568;28;102806;-66
2022/12/22 10:46:51;;;;;;;;;;;;;;;13.94;45.27;99444.22;4932636;28;100125;-66
2022/12/22 10:49:28;;;;;;;;;;;;;;;13.96;45.41;99439.28;4956412;28;116174;-63
2022/12/22 10:52:30;;;;;;;;;;;;;;;13.98;45.34;99440.56;4954559;28;99228;-63
2022/12/22 10:55:14;;;;;;;;;;;;;;;14.03;45.18;99436.09;4912943;28;98405;-67
2022/12/22 10:57:40;;;;;;;;;;;;;;;14.13;45.05;99438.53;4945054;28;98996;-63
2022/12/22 11:00:22;;;;;;;;;;;;;;;14.21;45.26;99437.75;4937761;28;128504;-63
2022/12/22 11:02:51;;;;;;;;;;;;;;;14.32;44.94;99430.91;4970075;28;98990;-67
2022/12/22 11:05:17;;;;;;;;;;;;;;;14.46;44.79;99425.34;4952999;28;98090;-67
2022/12/22 11:07:44;;;;;;;;;;;;;;;14.60;44.68;99419.81;4934353;28;98380;-63
2022/12/22 11:10:13;;;;;;;;;;;;;;;14.63;45.04;99422.69;4935524;28;98549;-64
2022/12/22 11:12:44;;;;;;;;;;;;;;;14.63;44.97;99428.09;4945253;28;98136;-63
2022/12/22 11:15:37;;;;;;;;;;;;;;;14.65;44.87;99423.16;4954863;28;98386;-67
2022/12/22 11:18:21;;;;;;;;;;;;;;;14.68;45.05;99419.00;4952159;28;98785;-67
2022/12/22 11:20:54;;;;;;;;;;;;;;;14.70;44.78;99409.44;4954718;28;98142;-67
2022/12/22 11:23:42;;;;;;;;;;;;;;;14.76;44.68;99409.28;4954323;28;99587;-66
2022/12/22 11:26:10;;;;;;;;;;;;;;;14.78;45.14;99405.13;4969048;27;114923;-67
2022/12/22 11:28:43;;;;;;;;;;;;;;;14.77;45.14;99400.00;4953216;28;98467;-66
2022/12/22 11:31:52;;;;;;;;;;;;;;;14.77;45.18;99392.66;4951910;28;98338;-63
2022/12/22 11:34:35;;;;;;;;;;;;;;;14.82;44.97;99384.38;4932652;28;122138;-63
2022/12/22 11:37:32;;;;;;;;;;;;;;;14.81;45.30;99374.63;4955324;28;98152;-67
2022/12/22 11:40:09;;;;;;;;;;;;;;;14.81;45.11;99371.91;4952154;28;98763;-63
2022/12/22 11:42:52;;;;;;;;;;;;;;;14.80;44.99;99369.53;4966265;28;100119;-63
2022/12/22 11:45:31;;;;;;;;;;;;;;;14.84;44.95;99360.44;4934279;28;99034;-64
2022/12/22 11:48:35;;;;;;;;;;;;;;;14.88;44.96;99350.53;4952781;28;99892;-68
2022/12/22 11:51:26;;;;;;;;;;;;;;;14.92;45.08;99356.09;4968502;28;99704;-64
2022/12/22 11:54:25;;;;;;;;;;;;;;;14.91;45.33;99358.03;4953140;28;119214;-68
2022/12/22 11:57:36;;;;;;;;;;;;;;;14.92;45.04;99353.41;4952526;28;99308;-68
2022/12/22 12:00:14;;;;;;;;;;;;;;;14.91;44.92;99357.22;4964260;28;99623;-64
2022/12/22 12:02:56;;;;;;;;;;;;;;;14.90;45.06;99356.44;4939667;28;119802;-64
2022/12/22 12:05:42;;;;;;;;;;;;;;;14.92;45.40;99354.19;4963891;28;99913;-65
2022/12/22 12:08:13;;;;;;;;;;;;;;;14.88;45.22;99350.53;4941277;28;98883;-68
2022/12/22 12:11:05;;;;;;;;;;;;;;;14.91;45.37;99355.31;4971903;28;97728;-65
2022/12/22 12:13:48;;;;;;;;;;;;;;;15.02;45.41;99347.63;4948547;28;98830;-65
2022/12/22 12:16:46;;;;;;;;;;;;;;;15.08;45.03;99348.25;4966510;28;112830;-65
2022/12/22 12:19:21;;;;;;;;;;;;;;;15.08;45.20;99340.91;4957437;28;99110;-68
2022/12/22 12:21:50;;;;;;;;;;;;;;;15.03;45.35;99343.78;4973309;28;98234;-68
2022/12/22 12:24:39;;;;;;;;;;;;;;;14.99;45.26;99340.13;4938801;28;117817;-64
2022/12/22 12:27:24;;;;;;;;;;;;;;;14.95;45.17;99339.97;4954912;28;99662;-67
2022/12/22 12:30:01;;;;;;;;;;;;;;;14.92;45.35;99337.91;4970425;28;99322;-67
2022/12/22 12:32:29;;;;;;;;;;;;;;;14.90;45.49;99339.38;4953280;28;98494;-64
2022/12/22 12:35:03;;;;;;;;;;;;;;;14.87;45.62;99338.09;4949900;28;121500;-65
2022/12/22 12:37:33;;;;;;;;;;;;;;;14.83;45.70;99336.34;4955923;28;123272;-63
2022/12/22 12:40:02;;;;;;;;;;;;;;;14.78;45.73;99336.53;4921645;27;108564;-63
2022/12/22 12:42:39;;;;;;;;;;;;;;;14.71;45.49;99335.09;4954465;28;98168;-67
2022/12/22 12:45:31;;;;;;;;;;;;;;;14.69;45.51;99334.59;4939370;28;98691;-67
2022/12/22 12:48:19;;;;;;;;;;;;;;;14.66;45.59;99337.19;4952366;28;123834;-67
2022/12/22 12:50:51;;;;;;;;;;;;;;;14.64;45.52;99336.69;4957212;28;99746;-67
2022/12/22 12:53:24;;;;;;;;;;;;;;;14.61;45.58;99338.13;4968860;28;124581;-67
2022/12/22 12:55:52;;;;;;;;;;;;;;;14.60;45.88;99335.75;4955998;28;98444;-63
2022/12/22 12:58:37;;;;;;;;;;;;;;;14.58;45.73;99335.25;4968938;28;101226;-66
2022/12/22 13:01:04;;;;;;;;;;;;;;;14.57;45.64;99334.47;4971436;28;98087;-64
2022/12/22 13:03:30;;;;;;;;;;;;;;;14.55;45.76;99336.72;4937238;28;98774;-64
2022/12/22 13:05:57;;;;;;;;;;;;;;;14.54;45.81;99335.13;4969982;28;98294;-64
2022/12/22 13:08:30;;;;;;;;;;;;;;;14.53;45.49;99332.72;4956936;28;98717;-68
2022/12/22 13:10:56;;;;;;;;;;;;;;;14.51;45.86;99324.91;4939898;28;98070;-64
2022/12/22 13:13:24;;;;;;;;;;;;;;;14.51;45.66;99329.53;4972478;28;97989;-65
2022/12/22 13:16:02;;;;;;;;;;;;;;;14.49;45.50;99330.63;4971854;28;103112;-65
2022/12/22 13:18:34;;;;;;;;;;;;;;;14.48;45.54;99323.59;4971420;28;98372;-65
2022/12/22 13:21:15;;;;;;;;;;;;;;;14.48;45.93;99329.03;4955725;28;99240;-68
2022/12/22 13:23:47;;;;;;;;;;;;;;;14.48;45.80;99331.72;4972584;28;98356;-68
2022/12/22 13:26:17;;;;;;;;;;;;;;;14.48;45.74;99331.72;4954796;27;121735;-65
2022/12/22 13:28:47;;;;;;;;;;;;;;;14.49;45.93;99338.78;4941175;28;103731;-69
2022/12/22 13:31:16;;;;;;;;;;;;;;;14.51;45.73;99334.97;4940938;28;122230;-65
2022/12/22 13:33:43;;;;;;;;;;;;;;;14.51;45.56;99341.19;4960174;28;98180;-65
2022/12/22 13:36:15;;;;;;;;;;;;;;;14.53;45.79;99336.22;4939135;28;99196;-68
2022/12/22 13:38:41;;;;;;;;;;;;;;;14.52;45.50;99340.06;4952847;28;101104;-65
2022/12/22 13:41:19;;;;;;;;;;;;;;;14.51;45.83;99340.38;4953479;28;126782;-68
2022/12/22 13:43:51;;;;;;;;;;;;;;;14.50;45.46;99339.56;4941705;28;122640;-68
2022/12/22 13:46:17;;;;;;;;;;;;;;;14.48;45.59;99330.94;4952359;28;119065;-65
2022/12/22 13:48:53;;;;;;;;;;;;;;;14.47;45.90;99345.63;4935943;28;98118;-69
2022/12/22 13:51:25;;;;;;;;;;;;;;;14.45;45.51;99345.13;4937733;28;105175;-68
2022/12/22 13:54:02;;;;;;;;;;;;;;;14.45;45.65;99350.53;4932350;28;98159;-68
2022/12/22 13:56:42;;;;;;;;;;;;;;;14.43;45.98;99345.47;4951142;28;120475;-68
2022/12/22 13:59:44;;;;;;;;;;;;;;;14.42;45.66;99348.47;4940080;28;99613;-68
2022/12/22 14:02:11;;;;;;;;;;;;;;;14.41;45.64;99358.53;4952970;28;98010;-68
2022/12/22 14:04:38;;;;;;;;;;;;;;;14.41;45.72;99353.09;4968926;28;99716;-69
2022/12/22 14:07:18;;;;;;;;;;;;;;;14.40;45.84;99353.44;4953504;28;110023;-68
2022/12/22 14:09:47;;;;;;;;;;;;;;;14.39;45.83;99360.75;4956920;28;98219;-68
2022/12/22 14:12:18;;;;;;;;;;;;;;;14.38;45.76;99370.03;4934990;28;98324;-68
2022/12/22 14:14:45;;;;;;;;;;;;;;;14.37;45.83;99362.97;4936028;28;124248;-68
2022/12/22 14:17:32;;;;;;;;;;;;;;;14.37;45.90;99364.91;4967347;28;98470;-64
2022/12/22 14:19:59;;;;;;;;;;;;;;;14.36;45.70;99369.53;4949336;28;127585;-64
2022/12/22 14:22:37;;;;;;;;;;;;;;;14.35;46.03;99362.53;4952291;28;98033;-68
2022/12/22 14:25:08;;;;;;;;;;;;;;;14.35;45.66;99359.81;4941730;28;101051;-63
2022/12/22 14:27:38;;;;;;;;;;;;;;;14.34;45.70;99360.13;4954881;28;99661;-64
2022/12/22 14:30:06;;;;;;;;;;;;;;;14.33;46.03;99361.22;4966625;28;126223;-64
2022/12/22 14:32:37;;;;;;;;;;;;;;;14.33;45.81;99366.66;4950852;28;128039;-68
2022/12/22 14:35:14;;;;;;;;;;;;;;;14.32;45.74;99362.34;4939256;28;98346;-64
2022/12/22 14:37:40;;;;;;;;;;;;;;;14.32;45.85;99367.78;4937686;28;99428;-68
2022/12/22 14:40:12;;;;;;;;;;;;;;;14.31;46.15;99368.91;4936040;28;128543;-67
2022/12/22 14:42:42;;;;;;;;;;;;;;;14.32;46.18;99381.34;4952814;28;98466;-64
2022/12/22 14:45:14;;;;;;;;;;;;;;;14.30;45.75;99378.91;4935488;28;98177;-64
2022/12/22 14:47:40;;;;;;;;;;;;;;;14.29;45.73;99385.47;4949611;28;126938;-64
2022/12/22 14:50:16;;;;;;;;;;;;;;;14.28;46.10;99383.88;4931722;28;128169;-68
2022/12/22 14:52:48;;;;;;;;;;;;;;;14.29;45.75;99390.09;4964763;28;98586;-65
2022/12/22 14:55:40;;;;;;;;;;;;;;;14.28;46.19;99399.34;4956154;28;98284;-70
2022/12/22 14:58:14;;;;;;;;;;;;;;;14.27;46.05;99405.88;4949113;28;98736;-68
2022/12/22 15:00:42;;;;;;;;;;;;;;;14.25;45.73;99412.41;4938553;28;116747;-68
2022/12/22 15:03:33;;;;;;;;;;;;;;;14.23;46.20;99413.84;4956870;27;105819;-64
2022/12/22 15:06:27;;;;;;;;;;;;;;;14.20;46.16;99407.16;4922155;28;98028;-64
2022/12/22 15:09:03;;;;;;;;;;;;;;;14.17;46.06;99415.91;4971083;28;98420;-68
2022/12/22 15:11:30;;;;;;;;;;;;;;;14.16;45.99;99416.22;4954885;28;99564;-63
2022/12/22 15:13:56;;;;;;;;;;;;;;;14.14;45.78;99421.94;4937420;28;99261;-69
2022/12/22 15:16:22;;;;;;;;;;;;;;;14.14;46.01;99429.28;4939041;28;99199;-64
2022/12/22 15:18:48;;;;;;;;;;;;;;;14.13;46.08;99435.81;4957111;28;128509;-64
2022/12/22 15:21:15;;;;;;;;;;;;;;;14.12;45.74;99439.66;4956541;28;125224;-68
2022/12/22 15:23:40;;;;;;;;;;;;;;;14.11;45.76;99440.75;4954691;28;122128;-64
2022/12/22 15:26:06;;;;;;;;;;;;;;;14.12;45.74;99445.06;4936084;28;124694;-68
2022/12/22 15:28:33;;;;;;;;;;;;;;;14.11;46.11;99449.69;4935367;28;122347;-68
2022/12/22 15:30:59;;;;;;;;;;;;;;;14.11;45.76;99449.69;4954426;28;98223;-63
2022/12/22 15:33:25;;;;;;;;;;;;;;;14.12;45.84;99461.34;4940689;28;112577;-67
2022/12/22 15:35:51;;;;;;;;;;;;;;;14.11;45.94;99454.28;4952580;28;121360;-64
2022/12/22 15:38:21;;;;;;;;;;;;;;;14.10;45.97;99467.03;4938724;28;100138;-64
2022/12/22 15:40:47;;;;;;;;;;;;;;;14.09;46.15;99464.66;4953558;28;98460;-67
2022/12/22 15:43:13;;;;;;;;;;;;;;;14.11;46.24;99478.69;4955094;28;124764;-66
2022/12/22 15:45:39;;;;;;;;;;;;;;;14.11;46.17;99487.63;4935088;28;98192;-63
2022/12/22 15:48:06;;;;;;;;;;;;;;;14.11;46.07;99498.47;4923163;28;98598;-63
2022/12/22 15:50:34;;;;;;;;;;;;;;;14.12;46.00;99507.41;4952768;28;123337;-64
2022/12/22 15:52:59;;;;;;;;;;;;;;;14.12;45.92;99504.69;4938466;28;116678;-63
2022/12/22 15:55:25;;;;;;;;;;;;;;;14.10;46.12;99504.19;4955372;28;98199;-64
2022/12/22 15:57:56;;;;;;;;;;;;;;;14.11;46.18;99509.31;4958198;28;123574;-69
2022/12/22 16:00:22;;;;;;;;;;;;;;;14.12;46.06;99518.25;4954479;28;99050;-67
2022/12/22 16:02:48;;;;;;;;;;;;;;;14.11;45.98;99514.72;4941241;28;98322;-64
2022/12/22 16:05:14;;;;;;;;;;;;;;;14.13;46.10;99525.25;4957705;28;114357;-64
2022/12/22 16:07:40;;;;;;;;;;;;;;;14.12;45.82;99527.16;4939942;28;130296;-64
2022/12/22 16:10:19;;;;;;;;;;;;;;;14.12;46.12;99529.88;4942553;28;114837;-64
2022/12/22 16:12:52;;;;;;;;;;;;;;;14.13;46.28;99536.88;4960390;28;99217;-64
2022/12/22 16:15:18;;;;;;;;;;;;;;;14.13;45.63;99530.66;4953202;28;98378;-69
2022/12/22 16:17:44;;;;;;;;;;;;;;;14.14;45.79;99534.97;4953985;28;125678;-64
2022/12/22 16:20:10;;;;;;;;;;;;;;;14.14;46.17;99548.50;4952453;28;128222;-68
2022/12/22 16:22:36;;;;;;;;;;;;;;;14.14;46.07;99551.22;4956493;28;121604;-65
2022/12/22 16:25:03;;;;;;;;;;;;;;;14.14;46.17;99548.50;4938141;28;99603;-68
2022/12/22 16:27:30;;;;;;;;;;;;;;;14.14;46.13;99556.66;4954322;28;127303;-69
2022/12/22 16:29:56;;;;;;;;;;;;;;;14.15;45.82;99563.69;4937030;28;98255;-65
2022/12/22 16:32:26;;;;;;;;;;;;;;;14.15;46.04;99572.63;4956640;28;125483;-64